Time;durP1;ratioP1;P1;durP2;ratioP2;P2;SDS_P1;SDS_P2;PMS_P1;PMS_P2;Temp;Humidity;BMP_temperature;BMP_pressure;BME280_temperature;BME280_humidity;BME280_pressure;Samples;Min_cycle;Max_cycle;Signal;HPM_P1;HPM_P2
2022/09/01 00:01:41;;;;;;;20.15;13.60;;;20.60;77.40;;;;;;5077500;28;20545;-52
2022/09/01 00:04:10;;;;;;;20.85;13.52;;;20.70;76.50;;;;;;5077577;28;20052;-49
2022/09/01 00:06:39;;;;;;;20.90;13.35;;;20.80;77.20;;;;;;5077840;28;20040;-47
2022/09/01 00:09:08;;;;;;;22.33;12.80;;;20.80;76.80;;;;;;5077599;28;20049;-50
2022/09/01 00:11:35;;;;;;;20.60;13.05;;;20.90;77.00;;;;;;5077558;28;20036;-50
2022/09/01 00:14:02;;;;;;;21.10;14.20;;;20.90;77.20;;;;;;5076782;28;20032;-48
2022/09/01 00:16:29;;;;;;;23.40;14.40;;;21.00;76.10;;;;;;5077519;28;20020;-50
2022/09/01 00:18:55;;;;;;;24.73;15.18;;;21.00;76.40;;;;;;5077672;28;20028;-50
2022/09/01 00:21:26;;;;;;;25.75;15.38;;;21.00;79.20;;;;;;5077488;28;20028;-49
2022/09/01 00:23:52;;;;;;;27.67;15.98;;;21.00;80.20;;;;;;5077446;28;20405;-49
2022/09/01 00:26:18;;;;;;;22.00;14.70;;;21.00;78.60;;;;;;5077654;28;20009;-51
2022/09/01 00:28:44;;;;;;;24.80;15.13;;;21.00;79.30;;;;;;5077432;28;20035;-52
2022/09/01 00:31:10;;;;;;;23.48;15.15;;;21.10;79.40;;;;;;5077737;28;20028;-49
2022/09/01 00:33:37;;;;;;;26.80;15.20;;;21.10;80.10;;;;;;5077502;28;20056;-49
2022/09/01 00:36:04;;;;;;;23.80;15.15;;;21.10;79.70;;;;;;5077342;28;20396;-50
2022/09/01 00:38:30;;;;;;;22.52;14.23;;;21.10;78.70;;;;;;5077301;28;20086;-48
2022/09/01 00:40:56;;;;;;;26.27;15.82;;;21.10;78.60;;;;;;5077295;28;20057;-50
2022/09/01 00:43:23;;;;;;;26.48;15.15;;;21.10;80.50;;;;;;5077530;28;20017;-53
2022/09/01 00:45:50;;;;;;;26.15;15.07;;;21.20;78.50;;;;;;5077262;28;20020;-51
2022/09/01 00:48:18;;;;;;;27.00;15.48;;;21.20;80.50;;;;;;5077445;28;20357;-49
2022/09/01 00:50:45;;;;;;;27.33;15.20;;;21.20;80.60;;;;;;5077395;28;20028;-48
2022/09/01 00:53:11;;;;;;;23.25;14.52;;;21.20;78.90;;;;;;5077158;28;20047;-52
2022/09/01 00:55:38;;;;;;;21.90;14.02;;;21.20;79.30;;;;;;5077332;28;20032;-48
2022/09/01 00:58:06;;;;;;;22.83;14.75;;;21.20;79.00;;;;;;5077160;28;20149;-47
2022/09/01 01:00:45;;;;;;;24.83;13.25;;;21.20;78.90;;;;;;5076677;28;20032;-51
2022/09/01 01:03:11;;;;;;;21.33;13.88;;;21.20;78.40;;;;;;5076763;28;20021;-52
2022/09/01 01:05:44;;;;;;;22.70;13.98;;;21.30;78.50;;;;;;5077052;28;20035;-49
2022/09/01 01:08:10;;;;;;;19.67;13.02;;;21.30;79.00;;;;;;5076852;28;20045;-48
2022/09/01 01:10:40;;;;;;;21.58;13.05;;;21.30;77.80;;;;;;5077233;28;20029;-52
2022/09/01 01:13:12;;;;;;;21.92;15.10;;;21.30;78.10;;;;;;5077000;28;20110;-50
2022/09/01 01:15:42;;;;;;;22.17;13.45;;;21.30;78.40;;;;;;5076993;28;20020;-50
2022/09/01 01:18:15;;;;;;;20.50;13.00;;;21.30;77.80;;;;;;5076856;28;20032;-48
2022/09/01 01:23:57;;;;;;;25.00;14.93;;;21.40;78.60;;;;;;5077126;28;20036;-51
2022/09/01 01:26:23;;;;;;;21.15;14.55;;;21.40;79.30;;;;;;5080739;28;20398;-48
2022/09/01 01:28:53;;;;;;;23.63;13.18;;;21.40;79.70;;;;;;5080818;28;20491;-50
2022/09/01 01:31:21;;;;;;;22.65;13.52;;;21.40;78.60;;;;;;5080771;28;20020;-49
2022/09/01 01:33:50;;;;;;;20.95;13.32;;;21.40;78.70;;;;;;5080467;28;20081;-52
2022/09/01 01:36:18;;;;;;;22.73;13.85;;;21.40;78.60;;;;;;5080429;28;20017;-51
2022/09/01 01:38:47;;;;;;;23.00;14.25;;;21.40;78.10;;;;;;5080328;28;20497;-49
2022/09/01 01:41:16;;;;;;;24.38;14.00;;;21.40;78.60;;;;;;5080766;28;20021;-49
2022/09/01 01:43:42;;;;;;;21.25;14.20;;;21.40;78.50;;;;;;5080342;28;20020;-50
2022/09/01 01:46:13;;;;;;;25.30;14.40;;;21.40;78.70;;;;;;5080453;28;20036;-49
2022/09/01 01:48:41;;;;;;;29.33;14.15;;;21.40;79.40;;;;;;5079972;28;20052;-50
2022/09/01 01:51:10;;;;;;;29.00;14.88;;;21.40;78.80;;;;;;5080155;28;20475;-47
2022/09/01 01:53:37;;;;;;;24.85;14.65;;;21.50;78.80;;;;;;5080100;28;20024;-54
2022/09/01 01:56:04;;;;;;;27.55;15.98;;;21.50;79.50;;;;;;5080128;28;20104;-48
2022/09/01 01:58:32;;;;;;;27.80;14.95;;;21.50;78.10;;;;;;5080459;28;20100;-47
2022/09/01 02:00:58;;;;;;;29.13;14.65;;;21.50;78.70;;;;;;5080000;28;20016;-48
2022/09/01 02:03:27;;;;;;;24.30;14.50;;;21.40;78.30;;;;;;5061838;28;20027;-50
2022/09/01 02:05:54;;;;;;;29.00;16.02;;;21.40;79.00;;;;;;5079883;28;20025;-49
2022/09/01 02:08:24;;;;;;;26.35;15.70;;;21.40;79.40;;;;;;5079481;28;20044;-49
2022/09/01 02:10:54;;;;;;;24.35;15.25;;;21.40;79.70;;;;;;5080090;28;20021;-50
2022/09/01 02:13:29;;;;;;;31.73;15.45;;;21.40;78.80;;;;;;5079839;28;20108;-47
2022/09/01 02:15:58;;;;;;;31.73;16.10;;;21.40;78.80;;;;;;5079758;28;20130;-52
2022/09/01 02:18:34;;;;;;;25.92;15.18;;;21.40;78.70;;;;;;5079632;28;20020;-49
2022/09/01 02:21:01;;;;;;;27.67;15.93;;;21.30;78.60;;;;;;5079657;28;20028;-50
2022/09/01 02:23:28;;;;;;;27.45;16.25;;;21.30;79.00;;;;;;5079558;28;20029;-51
2022/09/01 02:26:01;;;;;;;29.90;16.73;;;21.30;79.00;;;;;;5079333;28;20016;-49
2022/09/01 02:28:30;;;;;;;30.45;17.23;;;21.30;78.90;;;;;;5079796;28;20031;-48
2022/09/01 02:30:58;;;;;;;25.98;15.95;;;21.30;79.60;;;;;;5079478;28;20016;-48
2022/09/01 02:33:27;;;;;;;28.73;17.38;;;21.30;79.40;;;;;;5079389;28;20598;-49
2022/09/01 02:36:00;;;;;;;27.17;17.15;;;21.30;79.20;;;;;;5078622;28;20023;-51
2022/09/01 02:38:28;;;;;;;24.02;16.02;;;21.20;79.90;;;;;;5061056;28;20025;-49
2022/09/01 02:40:57;;;;;;;26.27;16.50;;;21.20;79.50;;;;;;5079303;28;20058;-49
2022/09/01 02:43:27;;;;;;;27.98;17.10;;;21.20;80.00;;;;;;5079365;28;20146;-48
2022/09/01 02:45:58;;;;;;;24.45;16.10;;;21.20;79.80;;;;;;5079225;28;20029;-52
2022/09/01 02:48:31;;;;;;;26.55;15.70;;;21.20;79.60;;;;;;5079130;28;20427;-49
2022/09/01 02:51:00;;;;;;;25.73;16.33;;;21.30;78.90;;;;;;5079534;28;20021;-47
2022/09/01 02:53:30;;;;;;;28.60;17.13;;;21.30;78.80;;;;;;5079129;28;20028;-50
2022/09/01 02:55:58;;;;;;;32.13;17.02;;;21.30;79.70;;;;;;5078412;28;20037;-50
2022/09/01 02:58:27;;;;;;;26.33;16.15;;;21.30;80.30;;;;;;5078726;28;20020;-49
2022/09/01 03:00:56;;;;;;;23.55;16.23;;;21.30;78.90;;;;;;5078744;28;20028;-50
2022/09/01 03:03:23;;;;;;;25.80;16.08;;;21.30;79.00;;;;;;5078890;28;20116;-48
2022/09/01 03:05:54;;;;;;;26.08;16.15;;;21.30;79.50;;;;;;5078908;28;20013;-49
2022/09/01 03:08:22;;;;;;;24.08;15.98;;;21.30;79.70;;;;;;5078486;28;20041;-52
2022/09/01 03:10:48;;;;;;;25.42;15.43;;;21.30;79.60;;;;;;5078483;28;20021;-54
2022/09/01 03:13:17;;;;;;;24.80;15.82;;;21.30;79.30;;;;;;5078383;28;20027;-50
2022/09/01 03:15:43;;;;;;;26.48;17.98;;;21.40;79.50;;;;;;5078462;28;20035;-48
2022/09/01 03:18:11;;;;;;;24.95;16.45;;;21.40;80.00;;;;;;5078413;28;20052;-47
2022/09/01 03:20:43;;;;;;;28.23;16.10;;;21.40;79.40;;;;;;5078283;28;20028;-48
2022/09/01 03:23:13;;;;;;;22.67;16.05;;;21.40;79.50;;;;;;5078032;28;20084;-50
2022/09/01 03:25:40;;;;;;;26.13;16.33;;;21.40;79.20;;;;;;5078409;28;20012;-49
2022/09/01 03:28:07;;;;;;;23.33;15.55;;;21.40;80.30;;;;;;5078218;28;20070;-49
2022/09/01 03:30:38;;;;;;;27.42;15.90;;;21.40;80.10;;;;;;5078144;28;20028;-52
2022/09/01 03:33:06;;;;;;;22.83;15.35;;;21.40;80.40;;;;;;5077833;28;20517;-50
2022/09/01 03:35:32;;;;;;;22.42;14.38;;;21.30;80.40;;;;;;5078508;28;20020;-52
2022/09/01 03:38:00;;;;;;;24.98;14.75;;;21.30;79.60;;;;;;5078222;28;20097;-54
2022/09/01 03:40:31;;;;;;;24.55;15.98;;;21.30;79.30;;;;;;5077913;28;20025;-50
2022/09/01 03:43:05;;;;;;;24.65;15.80;;;21.30;79.60;;;;;;5077969;28;20024;-50
2022/09/01 03:45:37;;;;;;;;;;;21.30;79.10;;;;;;5078320;28;20027;-47
2022/09/01 03:48:08;;;;;;;22.52;14.80;;;21.30;78.30;;;;;;5077756;28;19904;-51
2022/09/01 03:50:39;;;;;;;22.55;14.93;;;21.30;80.70;;;;;;5077839;28;20047;-51
2022/09/01 03:53:07;;;;;;;23.15;16.05;;;21.30;79.60;;;;;;5077542;28;20027;-51
2022/09/01 03:55:36;;;;;;;21.95;14.48;;;21.30;80.00;;;;;;5077978;28;20029;-51
2022/09/01 03:58:07;;;;;;;21.73;13.98;;;21.30;79.20;;;;;;5077714;28;20024;-49
2022/09/01 04:00:43;;;;;;;22.50;14.43;;;21.20;79.30;;;;;;5060128;28;20032;-49
2022/09/01 04:03:11;;;;;;;23.52;14.75;;;21.20;79.20;;;;;;5077927;28;20020;-51
2022/09/01 04:05:44;;;;;;;25.33;16.13;;;21.10;79.30;;;;;;5077763;28;20077;-48
2022/09/01 04:08:11;;;;;;;24.63;15.82;;;21.10;79.40;;;;;;5077331;28;20500;-50
2022/09/01 04:10:52;;;;;;;24.67;15.45;;;21.10;78.90;;;;;;5077662;28;20082;-49
2022/09/01 04:13:21;;;;;;;25.13;15.05;;;21.00;79.40;;;;;;5077627;28;20025;-50
2022/09/01 04:15:48;;;;;;;22.73;14.55;;;20.90;79.40;;;;;;5077719;28;20028;-46
2022/09/01 04:18:20;;;;;;;22.67;15.43;;;20.90;79.50;;;;;;5077628;28;20031;-51
2022/09/01 04:20:51;;;;;;;22.60;15.50;;;20.90;79.10;;;;;;5077849;28;20101;-50
2022/09/01 04:23:35;;;;;;;24.30;15.57;;;20.80;79.20;;;;;;5077865;28;20100;-48
2022/09/01 04:26:14;;;;;;;25.20;14.77;;;20.80;79.10;;;;;;5077490;28;20033;-48
2022/09/01 04:28:45;;;;;;;28.00;15.32;;;20.70;78.90;;;;;;5077437;28;20024;-50
2022/09/01 04:31:16;;;;;;;23.17;14.55;;;20.70;79.30;;;;;;5077425;28;20051;-49
2022/09/01 04:33:45;;;;;;;26.00;16.25;;;20.60;79.20;;;;;;5077393;28;20025;-50
2022/09/01 04:36:24;;;;;;;23.02;16.20;;;20.60;79.30;;;;;;5077353;28;20028;-48
2022/09/01 04:38:56;;;;;;;23.10;14.82;;;20.60;79.50;;;;;;5077449;28;20017;-51
2022/09/01 04:41:24;;;;;;;26.42;13.93;;;20.50;79.80;;;;;;5077552;28;20104;-51
2022/09/01 04:43:55;;;;;;;23.70;14.82;;;20.40;79.30;;;;;;5077053;28;20377;-53
2022/09/01 04:46:21;;;;;;;24.27;15.60;;;20.40;78.90;;;;;;5076990;28;20025;-47
2022/09/01 04:48:50;;;;;;;22.45;14.55;;;20.30;79.30;;;;;;5077457;28;20020;-54
2022/09/01 04:51:16;;;;;;;20.35;14.40;;;20.30;79.30;;;;;;5077230;28;20012;-48
2022/09/01 04:53:47;;;;;;;19.70;13.82;;;20.30;79.30;;;;;;5077370;28;20029;-51
2022/09/01 04:56:22;;;;;;;22.73;14.35;;;20.30;79.00;;;;;;5058944;28;20089;-49
2022/09/01 04:58:55;;;;;;;23.73;14.77;;;20.20;79.60;;;;;;5077326;28;20024;-50
2022/09/01 05:01:24;;;;;;;20.80;13.40;;;20.20;79.40;;;;;;5080780;28;20036;-49
2022/09/01 05:03:58;;;;;;;20.23;14.10;;;20.10;79.20;;;;;;5081553;28;20028;-47
2022/09/01 05:06:24;;;;;;;23.02;14.23;;;20.10;79.60;;;;;;5081301;28;20021;-51
2022/09/01 05:08:50;;;;;;;24.92;14.82;;;20.10;79.60;;;;;;5080928;28;20068;-48
2022/09/01 05:11:16;;;;;;;20.98;14.20;;;20.00;80.20;;;;;;5080893;28;20385;-50
2022/09/01 05:13:47;;;;;;;20.15;15.02;;;19.90;81.10;;;;;;5081098;28;20051;-52
2022/09/01 05:16:20;;;;;;;23.20;14.30;;;19.90;80.30;;;;;;5081072;28;20036;-47
2022/09/01 05:18:48;;;;;;;23.98;14.98;;;19.90;80.30;;;;;;5080779;28;20032;-49
2022/09/01 05:21:17;;;;;;;25.88;15.52;;;19.90;80.70;;;;;;5080927;28;20055;-49
2022/09/01 05:23:44;;;;;;;22.80;14.25;;;19.80;80.80;;;;;;5080654;28;20099;-52
2022/09/01 05:26:25;;;;;;;20.05;14.40;;;19.80;81.00;;;;;;5081157;28;20051;-49
2022/09/01 05:29:02;;;;;;;21.67;14.63;;;19.90;80.40;;;;;;5080732;28;20074;-50
2022/09/01 05:31:33;;;;;;;22.35;14.80;;;19.80;80.00;;;;;;5080597;28;20388;-50
2022/09/01 05:34:02;;;;;;;25.05;14.90;;;19.80;80.20;;;;;;5080659;28;20042;-50
2022/09/01 05:36:32;;;;;;;20.98;14.38;;;19.80;80.50;;;;;;5080226;28;20537;-47
2022/09/01 05:38:59;;;;;;;21.25;14.88;;;19.80;80.60;;;;;;5080375;28;20038;-50
2022/09/01 05:41:25;;;;;;;27.30;16.45;;;19.70;80.30;;;;;;5080449;28;20097;-49
2022/09/01 05:43:52;;;;;;;21.63;15.15;;;19.70;80.10;;;;;;5080335;28;20107;-50
2022/09/01 05:46:22;;;;;;;21.33;14.85;;;19.70;80.70;;;;;;5080224;28;20516;-52
2022/09/01 05:48:50;;;;;;;21.00;15.00;;;19.60;81.30;;;;;;5080461;28;20105;-49
2022/09/01 05:51:20;;;;;;;24.90;14.35;;;19.70;81.00;;;;;;5080091;28;20021;-50
2022/09/01 05:53:50;;;;;;;21.38;13.93;;;19.60;81.10;;;;;;5079871;28;20033;-48
2022/09/01 05:56:18;;;;;;;19.83;15.05;;;19.60;81.10;;;;;;5080012;28;20434;-47
2022/09/01 05:58:46;;;;;;;22.85;15.13;;;19.60;80.30;;;;;;5080192;28;20028;-47
2022/09/01 06:01:21;;;;;;;22.77;15.18;;;19.60;81.10;;;;;;5080024;28;20021;-53
2022/09/01 06:03:53;;;;;;;22.23;14.80;;;19.50;81.50;;;;;;5080466;28;20020;-48
2022/09/01 06:06:24;;;;;;;25.10;15.60;;;19.60;81.40;;;;;;5079667;28;20418;-47
2022/09/01 06:08:50;;;;;;;18.65;14.32;;;19.60;81.60;;;;;;5079683;28;20044;-48
2022/09/01 06:11:17;;;;;;;26.27;15.10;;;19.60;81.30;;;;;;5078689;28;20025;-49
2022/09/01 06:13:46;;;;;;;22.08;15.10;;;19.60;80.80;;;;;;5080307;28;20031;-51
2022/09/01 06:16:15;;;;;;;20.15;15.05;;;19.60;81.80;;;;;;5079656;28;20023;-49
2022/09/01 06:18:42;;;;;;;20.33;15.85;;;19.60;82.20;;;;;;5079706;28;20029;-47
2022/09/01 06:21:11;;;;;;;20.73;14.90;;;19.70;82.30;;;;;;5079833;28;20021;-50
2022/09/01 06:23:37;;;;;;;22.00;14.95;;;19.70;82.10;;;;;;5079583;28;20037;-49
2022/09/01 06:26:04;;;;;;;21.90;15.63;;;19.70;83.00;;;;;;5079782;28;20021;-50
2022/09/01 06:28:30;;;;;;;21.90;14.88;;;19.80;83.10;;;;;;5079565;28;20052;-46
2022/09/01 06:30:56;;;;;;;22.42;15.90;;;19.90;81.60;;;;;;5079487;28;20031;-47
2022/09/01 06:33:24;;;;;;;26.65;17.50;;;19.90;82.00;;;;;;5079554;28;20033;-49
2022/09/01 06:35:52;;;;;;;26.95;17.00;;;19.90;83.00;;;;;;5079534;28;20025;-49
2022/09/01 06:38:18;;;;;;;21.52;16.42;;;19.90;82.70;;;;;;5079505;28;20052;-47
2022/09/01 06:40:45;;;;;;;28.13;17.27;;;19.90;82.70;;;;;;5079258;28;20107;-51
2022/09/01 06:43:15;;;;;;;26.30;17.38;;;20.00;83.10;;;;;;5079276;28;20033;-48
2022/09/01 06:45:45;;;;;;;21.95;14.68;;;20.00;82.00;;;;;;5079237;28;20095;-49
2022/09/01 06:48:16;;;;;;;22.83;16.70;;;20.10;83.10;;;;;;5077842;28;20021;-54
2022/09/01 06:50:42;;;;;;;27.48;17.58;;;20.20;82.50;;;;;;5078906;28;20059;-51
2022/09/01 06:53:17;;;;;;;27.55;18.70;;;20.20;82.50;;;;;;5079193;28;20039;-49
2022/09/01 06:55:45;;;;;;;31.35;19.73;;;20.30;83.10;;;;;;5079132;28;20035;-52
2022/09/01 06:58:14;;;;;;;28.48;18.25;;;20.40;82.20;;;;;;5078632;28;20037;-51
2022/09/01 07:00:42;;;;;;;23.63;17.20;;;20.50;82.60;;;;;;5078623;28;20107;-53
2022/09/01 07:03:10;;;;;;;28.65;18.40;;;20.60;82.70;;;;;;5078624;28;20029;-50
2022/09/01 07:05:40;;;;;;;27.60;20.10;;;20.60;82.30;;;;;;5078531;28;20024;-54
2022/09/01 07:08:09;;;;;;;27.88;19.10;;;20.70;82.90;;;;;;5078017;28;20071;-51
2022/09/01 07:10:43;;;;;;;26.42;19.65;;;20.70;83.00;;;;;;5078694;28;20036;-52
2022/09/01 07:13:11;;;;;;;27.77;19.88;;;20.80;82.90;;;;;;5078780;28;20027;-54
2022/09/01 07:15:41;;;;;;;29.30;19.70;;;20.80;83.30;;;;;;5078426;28;20020;-52
2022/09/01 07:18:07;;;;;;;27.63;19.90;;;20.80;82.30;;;;;;5078317;28;20035;-52
2022/09/01 07:20:37;;;;;;;30.73;21.42;;;20.90;83.20;;;;;;5078260;28;20024;-50
2022/09/01 07:23:02;;;;;;;30.02;18.63;;;20.90;83.00;;;;;;5060108;28;20067;-53
2022/09/01 07:25:30;;;;;;;27.13;18.67;;;20.90;82.50;;;;;;5078318;28;20074;-53
2022/09/01 07:27:58;;;;;;;31.00;19.90;;;21.00;82.30;;;;;;5078092;28;20020;-54
2022/09/01 07:30:24;;;;;;;25.02;18.08;;;21.00;82.80;;;;;;5077938;28;20035;-52
2022/09/01 07:32:51;;;;;;;30.73;19.58;;;21.00;82.70;;;;;;5077577;28;20029;-48
2022/09/01 07:35:21;;;;;;;28.63;18.38;;;21.10;81.60;;;;;;5078277;28;20024;-51
2022/09/01 07:37:47;;;;;;;27.92;18.98;;;21.10;82.40;;;;;;5059989;28;20052;-51
2022/09/01 07:40:18;;;;;;;28.23;17.77;;;21.10;82.90;;;;;;5078103;28;20028;-51
2022/09/01 07:42:46;;;;;;;30.83;19.40;;;21.20;82.70;;;;;;5078074;28;20048;-53
2022/09/01 07:45:14;;;;;;;26.65;17.40;;;21.30;82.60;;;;;;5077726;28;20024;-53
2022/09/01 07:47:41;;;;;;;26.40;19.23;;;21.40;82.00;;;;;;5077937;28;20016;-50
2022/09/01 07:50:09;;;;;;;28.73;18.65;;;21.50;82.30;;;;;;5077708;28;20150;-56
2022/09/01 07:52:41;;;;;;;30.70;18.63;;;21.50;82.00;;;;;;5077948;28;20025;-53
2022/09/01 07:55:16;;;;;;;25.17;16.30;;;21.50;82.00;;;;;;5077356;28;20021;-56
2022/09/01 07:57:45;;;;;;;24.95;16.17;;;21.60;82.00;;;;;;5077637;28;20578;-56
2022/09/01 08:00:13;;;;;;;28.88;17.88;;;21.70;81.80;;;;;;5077804;28;20023;-55
2022/09/01 08:02:45;;;;;;;25.52;16.50;;;21.80;81.60;;;;;;5057053;28;20333;-52
2022/09/01 08:05:16;;;;;;;26.50;17.40;;;21.90;81.80;;;;;;5057729;28;20045;-56
2022/09/01 08:07:46;;;;;;;23.45;16.95;;;21.90;81.40;;;;;;5057356;28;20423;-55
2022/09/01 08:10:12;;;;;;;26.13;16.95;;;22.00;80.70;;;;;;5057658;28;20033;-55
2022/09/01 08:12:38;;;;;;;28.80;16.85;;;22.10;79.80;;;;;;5057627;28;20025;-53
2022/09/01 08:15:06;;;;;;;30.35;15.88;;;22.10;79.90;;;;;;5057902;28;20036;-56
2022/09/01 08:17:32;;;;;;;24.77;16.98;;;22.20;80.10;;;;;;5057602;28;20032;-53
2022/09/01 08:19:58;;;;;;;26.25;15.48;;;22.20;78.80;;;;;;5057257;28;20110;-54
2022/09/01 08:22:24;;;;;;;25.73;14.68;;;22.10;79.00;;;;;;5057693;28;20021;-53
2022/09/01 08:24:53;;;;;;;28.13;15.65;;;22.00;78.90;;;;;;5057312;28;20021;-54
2022/09/01 08:27:19;;;;;;;24.15;14.68;;;22.00;79.00;;;;;;5057463;28;20092;-54
2022/09/01 08:29:45;;;;;;;27.52;14.65;;;21.90;78.90;;;;;;5057635;28;20060;-52
2022/09/01 08:32:11;;;;;;;23.75;13.98;;;21.90;79.40;;;;;;5057196;28;20025;-55
2022/09/01 08:34:38;;;;;;;25.17;14.65;;;22.00;79.40;;;;;;5056407;28;20431;-55
2022/09/01 08:37:05;;;;;;;21.67;14.65;;;22.10;79.00;;;;;;5057051;28;20481;-52
2022/09/01 08:39:31;;;;;;;21.85;12.90;;;22.20;79.00;;;;;;5057257;28;20029;-53
2022/09/01 08:42:26;;;;;;;23.63;13.93;;;22.30;78.70;;;;;;5057322;28;20107;-55
2022/09/01 08:45:23;;;;;;;21.50;12.65;;;22.40;77.60;;;;;;5057343;28;20021;-54
2022/09/01 08:47:54;;;;;;;19.40;12.88;;;22.60;78.70;;;;;;5049376;28;20065;-52
2022/09/01 08:50:21;;;;;;;21.25;13.73;;;22.80;77.50;;;;;;5057002;28;20047;-50
2022/09/01 08:52:55;;;;;;;19.52;12.95;;;22.90;77.10;;;;;;5056844;28;20025;-55
2022/09/01 08:55:44;;;;;;;18.15;11.70;;;23.20;77.50;;;;;;5057161;28;20125;-55
2022/09/01 08:58:15;;;;;;;18.73;11.93;;;23.50;78.20;;;;;;5057118;28;20060;-56
2022/09/01 09:00:53;;;;;;;20.20;12.32;;;23.60;76.00;;;;;;5056947;28;20035;-55
2022/09/01 09:03:41;;;;;;;22.67;13.18;;;23.80;74.50;;;;;;5056790;28;20017;-54
2022/09/01 09:06:18;;;;;;;21.67;12.82;;;24.00;72.50;;;;;;5057249;28;20036;-54
2022/09/01 09:09:16;;;;;;;16.77;12.02;;;24.30;75.00;;;;;;5056872;28;20555;-55
2022/09/01 09:11:57;;;;;;;17.05;11.10;;;24.70;77.10;;;;;;5013042;28;20087;-52
2022/09/01 09:15:04;;;;;;;18.77;11.60;;;24.60;71.30;;;;;;5056921;28;20025;-55
2022/09/01 09:17:38;;;;;;;22.02;12.43;;;24.80;72.70;;;;;;5056822;28;20100;-55
2022/09/01 09:20:05;;;;;;;18.77;12.50;;;24.80;73.00;;;;;;5056838;28;20029;-56
2022/09/01 09:22:32;;;;;;;16.92;9.70;;;25.00;72.00;;;;;;5056947;28;20101;-55
2022/09/01 09:25:13;;;;;;;19.85;9.57;;;25.10;70.90;;;;;;5056891;28;20017;-56
2022/09/01 09:27:41;;;;;;;17.85;10.48;;;24.80;68.10;;;;;;5056676;28;20139;-56
2022/09/01 09:30:26;;;;;;;16.85;10.52;;;24.50;67.60;;;;;;5056569;28;20039;-56
2022/09/01 09:32:59;;;;;;;17.38;10.50;;;24.30;69.70;;;;;;5056308;28;20082;-55
2022/09/01 09:35:41;;;;;;;22.97;11.57;;;24.30;70.30;;;;;;5056483;28;20029;-54
2022/09/01 09:38:17;;;;;;;24.33;10.77;;;24.40;71.40;;;;;;5056727;28;20044;-54
2022/09/01 09:41:12;;;;;;;17.67;9.10;;;24.40;68.40;;;;;;5056403;28;20037;-55
2022/09/01 09:43:57;;;;;;;16.08;9.50;;;24.30;71.10;;;;;;5056731;28;20032;-56
2022/09/01 09:46:23;;;;;;;16.45;10.40;;;24.10;68.40;;;;;;5058520;28;20021;-54
2022/09/01 09:49:06;;;;;;;17.63;10.30;;;23.80;68.40;;;;;;5060540;28;20411;-56
2022/09/01 09:51:32;;;;;;;19.23;10.57;;;23.70;69.00;;;;;;5060508;28;20063;-51
2022/09/01 09:54:19;;;;;;;19.83;11.05;;;23.60;69.50;;;;;;5060401;28;20045;-55
2022/09/01 09:56:47;;;;;;;24.98;10.77;;;23.60;70.80;;;;;;5060538;28;20052;-55
2022/09/01 09:59:36;;;;;;;29.00;10.45;;;23.70;68.90;;;;;;5060314;28;20029;-54
2022/09/01 10:02:42;;;;;;;21.70;11.27;;;23.60;70.30;;;;;;5060313;28;20079;-55
2022/09/01 10:05:36;;;;;;;23.50;13.52;;;23.70;71.30;;;;;;5059983;28;20081;-54
2022/09/01 10:08:03;;;;;;;19.73;12.40;;;23.60;71.10;;;;;;5060147;28;20492;-54
2022/09/01 10:10:44;;;;;;;23.38;13.75;;;23.40;71.40;;;;;;5060045;28;20033;-56
2022/09/01 10:13:17;;;;;;;23.83;13.48;;;23.40;71.90;;;;;;5060069;28;20550;-55
2022/09/01 10:15:48;;;;;;;25.13;13.52;;;23.30;71.80;;;;;;5060244;28;20349;-55
2022/09/01 10:18:17;;;;;;;17.13;11.27;;;23.40;72.00;;;;;;5059983;28;20033;-52
2022/09/01 10:20:55;;;;;;;25.48;12.07;;;23.50;71.00;;;;;;5059767;28;20037;-54
2022/09/01 10:23:21;;;;;;;14.95;9.35;;;23.40;71.60;;;;;;5060064;28;20021;-55
2022/09/01 10:25:49;;;;;;;16.50;9.32;;;23.20;70.00;;;;;;5059866;28;20108;-54
2022/09/01 10:28:22;;;;;;;16.00;9.05;;;23.10;71.00;;;;;;5059969;28;20032;-55
2022/09/01 10:30:51;;;;;;;15.57;8.60;;;23.20;70.90;;;;;;5060067;28;20021;-54
2022/09/01 10:33:19;;;;;;;20.10;9.10;;;23.20;71.00;;;;;;5059903;28;20033;-52
2022/09/01 10:35:50;;;;;;;21.05;9.20;;;23.20;71.40;;;;;;5059934;28;20052;-55
2022/09/01 10:38:23;;;;;;;18.42;8.98;;;23.10;70.50;;;;;;5059789;28;20438;-55
2022/09/01 10:41:06;;;;;;;16.30;8.80;;;23.20;71.00;;;;;;5059880;28;20033;-52
2022/09/01 10:43:40;;;;;;;14.68;9.93;;;23.30;70.50;;;;;;5059253;28;20040;-56
2022/09/01 10:46:19;;;;;;;17.17;9.10;;;23.40;70.40;;;;;;5059596;28;20025;-54
2022/09/01 10:48:47;;;;;;;20.00;8.82;;;23.30;69.80;;;;;;5059571;28;20029;-50
2022/09/01 10:51:12;;;;;;;16.15;8.73;;;23.30;69.60;;;;;;5059291;28;20077;-55
2022/09/01 10:53:40;;;;;;;16.00;8.23;;;23.10;69.90;;;;;;5059145;28;20052;-51
2022/09/01 10:56:26;;;;;;;12.55;8.13;;;23.10;70.00;;;;;;5058993;28;20036;-55
2022/09/01 10:59:06;;;;;;;15.50;8.73;;;23.10;71.40;;;;;;5057441;28;20017;-55
2022/09/01 11:01:43;;;;;;;14.20;8.63;;;23.10;70.60;;;;;;5058879;28;20024;-54
2022/09/01 11:04:15;;;;;;;13.43;8.73;;;23.00;71.20;;;;;;5058889;28;20029;-55
2022/09/01 11:06:41;;;;;;;15.75;9.05;;;22.90;71.30;;;;;;5058477;28;20036;-51
2022/09/01 11:10:05;;;;;;;17.35;9.38;;;22.90;71.50;;;;;;5058085;28;20049;-55
2022/09/01 11:12:30;;;;;;;16.25;9.40;;;22.90;72.00;;;;;;5057737;28;20404;-55
2022/09/01 11:15:00;;;;;;;16.42;9.63;;;22.90;72.90;;;;;;5058543;28;20487;-56
2022/09/01 11:17:31;;;;;;;20.88;9.98;;;22.80;73.60;;;;;;5058332;28;20108;-54
2022/09/01 11:20:07;;;;;;;16.10;9.43;;;22.70;74.30;;;;;;5058112;28;20029;-53
2022/09/01 11:22:43;;;;;;;17.80;9.93;;;22.80;74.60;;;;;;5058017;28;20027;-55
2022/09/01 11:25:17;;;;;;;14.45;9.85;;;22.90;74.60;;;;;;5058077;28;20029;-53
2022/09/01 11:27:48;;;;;;;17.25;10.32;;;22.80;74.20;;;;;;5058113;28;20031;-56
2022/09/01 11:30:52;;;;;;;18.23;10.52;;;22.80;74.70;;;;;;5058237;28;20361;-56
2022/09/01 11:33:47;;;;;;;17.33;10.20;;;22.80;75.20;;;;;;5057814;28;20524;-55
2022/09/01 11:36:35;;;;;;;18.10;10.18;;;22.80;75.10;;;;;;5057966;28;20032;-55
2022/09/01 11:39:28;;;;;;;15.88;9.40;;;22.80;75.50;;;;;;5057526;28;20036;-56
2022/09/01 11:42:17;;;;;;;15.35;9.75;;;22.80;75.40;;;;;;5057988;28;20108;-56
2022/09/01 11:45:02;;;;;;;16.30;9.98;;;23.00;75.30;;;;;;5057585;28;20029;-51
2022/09/01 11:47:42;;;;;;;15.93;9.50;;;23.10;74.80;;;;;;5058018;28;20029;-54
2022/09/01 11:50:26;;;;;;;21.70;10.57;;;23.00;74.90;;;;;;5057932;28;20017;-54
2022/09/01 11:53:05;;;;;;;16.23;9.48;;;23.00;75.00;;;;;;5057806;28;20029;-53
2022/09/01 11:55:41;;;;;;;14.48;9.45;;;23.00;74.70;;;;;;5057867;28;20104;-54
2022/09/01 11:58:12;;;;;;;18.55;10.20;;;22.90;74.70;;;;;;5057375;28;20495;-55
2022/09/01 12:00:43;;;;;;;15.88;9.00;;;22.80;74.90;;;;;;5057720;28;20029;-53
2022/09/01 12:03:28;;;;;;;19.15;11.50;;;22.70;76.00;;;;;;5039523;28;20116;-55
2022/09/01 12:06:00;;;;;;;21.00;11.60;;;22.50;76.10;;;;;;5056780;28;20231;-56
2022/09/01 12:08:30;;;;;;;19.73;11.38;;;22.40;77.10;;;;;;5057118;28;20052;-53
2022/09/01 12:11:26;;;;;;;20.50;11.70;;;22.30;77.20;;;;;;5057540;28;20055;-49
2022/09/01 12:14:04;;;;;;;16.65;11.82;;;22.20;77.80;;;;;;5057325;28;20163;-49
2022/09/01 12:16:34;;;;;;;20.95;11.77;;;22.10;79.30;;;;;;5057651;28;20066;-50
2022/09/01 12:19:00;;;;;;;21.00;11.63;;;22.00;80.10;;;;;;5057083;28;20032;-52
2022/09/01 12:21:32;;;;;;;24.48;11.95;;;21.90;79.80;;;;;;5057272;28;20024;-52
2022/09/01 12:24:16;;;;;;;19.65;11.90;;;21.80;80.70;;;;;;5057369;28;20045;-53
2022/09/01 12:26:43;;;;;;;18.50;11.68;;;21.80;81.80;;;;;;5057312;28;20029;-56
2022/09/01 12:29:12;;;;;;;25.73;12.32;;;21.80;81.50;;;;;;5057281;28;20816;-50
2022/09/01 12:31:42;;;;;;;18.23;11.73;;;21.80;80.30;;;;;;5057017;28;20496;-54
2022/09/01 12:34:26;;;;;;;24.40;12.20;;;21.70;81.90;;;;;;5057403;28;20083;-52
2022/09/01 12:37:24;;;;;;;18.90;12.07;;;21.60;82.50;;;;;;5057271;28;20025;-51
2022/09/01 12:39:56;;;;;;;24.13;12.52;;;21.40;84.80;;;;;;5057191;28;20040;-53
2022/09/01 12:42:25;;;;;;;18.83;11.63;;;21.50;84.20;;;;;;5057140;28;20031;-51
2022/09/01 12:45:06;;;;;;;17.95;11.55;;;21.50;85.10;;;;;;5057232;28;20055;-49
2022/09/01 12:47:32;;;;;;;19.67;11.43;;;21.60;84.70;;;;;;5057314;28;20017;-55
2022/09/01 12:49:59;;;;;;;23.10;12.13;;;21.70;83.90;;;;;;5057093;28;20048;-51
2022/09/01 12:52:27;;;;;;;22.35;11.80;;;21.70;83.20;;;;;;5057127;28;20357;-53
2022/09/01 12:55:13;;;;;;;22.60;11.40;;;21.70;84.10;;;;;;5057141;28;20028;-51